Time;durP1;ratioP1;P1;durP2;ratioP2;P2;SDS_P1;SDS_P2;PMS_P1;PMS_P2;Temp;Humidity;BMP_temperature;BMP_pressure;BME280_temperature;BME280_humidity;BME280_pressure;Samples;Min_cycle;Max_cycle;Signal;HPM_P1;HPM_P2
2023/12/25 00:01:08;;;;;;;1.80;0.80;;;10.40;35.50;;;;;;5043103;28;48218;-81
2023/12/25 00:03:33;;;;;;;1.80;0.80;;;10.40;35.50;;;;;;5045293;28;46475;-81
2023/12/25 00:05:59;;;;;;;1.63;0.77;;;10.40;35.60;;;;;;5049516;28;46518;-79
2023/12/25 00:08:24;;;;;;;2.10;0.80;;;10.40;35.70;;;;;;5044043;28;45904;-80
2023/12/25 00:10:50;;;;;;;1.40;0.70;;;10.20;35.90;;;;;;5043479;28;47291;-80
2023/12/25 00:13:15;;;;;;;1.63;0.70;;;10.20;35.70;;;;;;5051522;28;46881;-79
2023/12/25 00:15:41;;;;;;;1.93;0.80;;;10.20;35.50;;;;;;5046403;28;46679;-79
2023/12/25 00:18:06;;;;;;;2.10;1.00;;;10.10;35.50;;;;;;5045437;28;46711;-81
2023/12/25 00:20:32;;;;;;;1.93;0.90;;;10.10;35.80;;;;;;5047808;28;47102;-79
2023/12/25 00:22:58;;;;;;;2.30;0.80;;;10.10;35.80;;;;;;5048700;28;46510;-79
2023/12/25 00:25:24;;;;;;;1.90;1.00;;;10.10;35.70;;;;;;5050856;28;46462;-79
2023/12/25 00:27:49;;;;;;;1.40;0.77;;;10.10;35.70;;;;;;5049810;28;46419;-78
2023/12/25 00:30:15;;;;;;;2.47;0.80;;;10.10;35.70;;;;;;5045470;28;46126;-79
2023/12/25 00:32:41;;;;;;;1.47;0.70;;;10.10;35.60;;;;;;5050614;28;46551;-79
2023/12/25 00:35:06;;;;;;;1.50;0.70;;;10.10;35.50;;;;;;5047470;28;46498;-78
2023/12/25 00:37:32;;;;;;;2.37;0.80;;;10.10;35.40;;;;;;5049002;28;46475;-77
2023/12/25 00:39:57;;;;;;;1.50;0.70;;;10.10;35.40;;;;;;5049199;28;46990;-79
2023/12/25 00:42:23;;;;;;;1.40;0.70;;;10.00;35.50;;;;;;5047833;28;46442;-78
2023/12/25 00:44:49;;;;;;;1.30;0.70;;;10.00;35.30;;;;;;5063004;27;46393;-80
2023/12/25 00:47:15;;;;;;;1.60;0.70;;;10.10;36.70;;;;;;5051544;28;45972;-79
2023/12/25 00:49:40;;;;;;;1.90;0.80;;;10.00;35.40;;;;;;5045839;28;47138;-81
2023/12/25 00:52:06;;;;;;;5.63;0.93;;;9.90;36.30;;;;;;5048919;28;46363;-79
2023/12/25 00:54:31;;;;;;;2.03;0.90;;;9.90;36.30;;;;;;5048899;28;46554;-80
2023/12/25 00:57:00;;;;;;;2.40;0.93;;;10.00;35.30;;;;;;5048680;28;47165;-80
2023/12/25 00:59:26;;;;;;;1.57;0.70;;;9.90;36.10;;;;;;5047038;28;49147;-79
2023/12/25 01:01:51;;;;;;;2.00;0.80;;;9.80;36.10;;;;;;5051612;28;46505;-81
2023/12/25 01:04:17;;;;;;;4.33;0.80;;;9.80;36.10;;;;;;5049043;28;46739;-80
2023/12/25 01:06:42;;;;;;;1.80;0.73;;;9.80;36.00;;;;;;5049594;28;47176;-78
2023/12/25 01:09:08;;;;;;;1.47;0.80;;;9.80;36.00;;;;;;5047610;28;46076;-81
2023/12/25 01:11:42;;;;;;;1.70;0.80;;;9.80;35.90;;;;;;5047247;28;46893;-78
2023/12/25 01:14:09;;;;;;;1.70;0.77;;;9.80;35.60;;;;;;5055093;28;46563;-79
2023/12/25 01:16:35;;;;;;;2.27;0.93;;;9.80;35.50;;;;;;5052919;28;46758;-80
2023/12/25 01:19:01;;;;;;;1.60;0.80;;;9.80;35.50;;;;;;5049765;28;47633;-77
2023/12/25 01:21:27;;;;;;;1.97;0.80;;;9.80;35.60;;;;;;5049183;28;45779;-81
2023/12/25 01:23:52;;;;;;;1.53;0.80;;;9.80;35.40;;;;;;5051296;28;46458;-80
2023/12/25 01:26:20;;;;;;;2.10;0.80;;;9.80;35.00;;;;;;5050491;28;46441;-81
2023/12/25 01:28:46;;;;;;;1.50;0.77;;;9.70;35.10;;;;;;5053700;28;47374;-80
2023/12/25 01:31:12;;;;;;;2.83;0.80;;;9.70;35.00;;;;;;5049857;28;46940;-80
2023/12/25 01:33:37;;;;;;;1.50;0.90;;;9.70;34.90;;;;;;5055473;28;46519;-80
2023/12/25 01:36:03;;;;;;;2.80;0.83;;;9.70;34.80;;;;;;5055259;28;46470;-78
2023/12/25 01:38:29;;;;;;;1.87;0.90;;;9.70;34.70;;;;;;5054399;27;46707;-79
2023/12/25 01:40:55;;;;;;;1.90;0.97;;;9.70;34.50;;;;;;5057482;28;46470;-81
2023/12/25 01:43:20;;;;;;;1.40;0.70;;;9.70;34.30;;;;;;5056221;28;46568;-81
2023/12/25 01:45:46;;;;;;;4.10;0.80;;;9.70;34.20;;;;;;5050549;28;46423;-79
2023/12/25 01:48:12;;;;;;;1.73;0.73;;;9.70;34.40;;;;;;5051834;28;46532;-79
2023/12/25 01:50:38;;;;;;;1.90;0.77;;;9.70;34.10;;;;;;5048375;28;47085;-80
2023/12/25 01:53:04;;;;;;;1.50;0.83;;;9.70;34.00;;;;;;5050324;28;46662;-79
2023/12/25 01:55:30;;;;;;;3.20;0.80;;;9.70;33.90;;;;;;5058332;28;46363;-80
2023/12/25 01:57:56;;;;;;;1.70;0.80;;;9.60;33.90;;;;;;5053136;28;46914;-81
2023/12/25 02:00:21;;;;;;;1.53;0.70;;;9.60;33.90;;;;;;5054018;28;46563;-81
2023/12/25 02:02:47;;;;;;;1.73;0.77;;;9.60;33.90;;;;;;5052516;28;46460;-81
2023/12/25 02:05:13;;;;;;;1.47;0.77;;;9.60;33.70;;;;;;5052389;28;45895;-80
2023/12/25 02:07:42;;;;;;;2.03;0.70;;;9.60;33.60;;;;;;5050048;28;46474;-81
2023/12/25 02:10:08;;;;;;;1.90;0.90;;;9.60;33.50;;;;;;5055861;28;46901;-78
2023/12/25 02:12:36;;;;;;;1.50;0.70;;;9.60;33.20;;;;;;5052889;28;46443;-81
2023/12/25 02:15:05;;;;;;;1.40;0.70;;;9.60;33.00;;;;;;5050406;28;46581;-82
2023/12/25 02:17:32;;;;;;;1.93;0.70;;;9.60;32.90;;;;;;5052589;28;47493;-79
2023/12/25 02:19:58;;;;;;;1.73;0.90;;;9.60;32.90;;;;;;5051711;28;46577;-80
2023/12/25 02:22:24;;;;;;;1.50;0.70;;;9.60;32.90;;;;;;5049698;28;46389;-81
2023/12/25 02:25:01;;;;;;;1.33;0.70;;;9.50;32.50;;;;;;5052446;28;46458;-80
2023/12/25 02:27:26;;;;;;;1.60;0.70;;;9.50;32.30;;;;;;5054837;28;48234;-80
2023/12/25 02:29:52;;;;;;;1.50;0.80;;;9.50;32.30;;;;;;5053200;28;46458;-81
2023/12/25 02:32:17;;;;;;;1.83;0.90;;;9.40;32.30;;;;;;5049293;28;46495;-80
2023/12/25 02:34:44;;;;;;;5.70;1.00;;;9.40;32.00;;;;;;5050210;28;46583;-81
2023/12/25 02:37:10;;;;;;;2.13;0.87;;;9.40;32.00;;;;;;5051123;28;48249;-80
2023/12/25 02:39:35;;;;;;;2.27;0.90;;;9.30;31.90;;;;;;5051971;28;46857;-80
2023/12/25 02:42:01;;;;;;;1.80;0.80;;;9.40;31.90;;;;;;5050365;28;46446;-83
2023/12/25 02:44:26;;;;;;;1.90;0.73;;;9.30;31.80;;;;;;5052950;28;46563;-80
2023/12/25 02:46:52;;;;;;;3.10;0.90;;;9.30;31.80;;;;;;5051514;28;46383;-80
2023/12/25 02:49:17;;;;;;;1.50;0.80;;;9.20;31.60;;;;;;5048790;28;46669;-80
2023/12/25 02:51:43;;;;;;;1.30;0.70;;;9.20;31.10;;;;;;5046312;28;46978;-81
2023/12/25 02:54:08;;;;;;;1.40;0.70;;;9.20;31.10;;;;;;5052740;28;46478;-80
2023/12/25 02:56:34;;;;;;;2.17;1.00;;;9.20;31.30;;;;;;5050246;28;46217;-81
2023/12/25 02:58:59;;;;;;;2.67;0.80;;;9.10;31.20;;;;;;5056775;28;46486;-81
2023/12/25 03:01:25;;;;;;;2.17;0.70;;;9.10;31.50;;;;;;5051752;28;46345;-81
2023/12/25 03:03:51;;;;;;;1.90;0.70;;;9.10;31.30;;;;;;5049627;28;46853;-81
2023/12/25 03:06:17;;;;;;;1.80;0.73;;;9.10;31.30;;;;;;5066814;27;48645;-81
2023/12/25 03:08:42;;;;;;;2.47;0.80;;;9.10;31.30;;;;;;5052093;28;47220;-82
2023/12/25 03:11:08;;;;;;;1.60;0.90;;;9.00;31.50;;;;;;5052566;28;46211;-80
2023/12/25 03:13:34;;;;;;;2.90;0.70;;;9.00;31.50;;;;;;5049616;28;46661;-81
2023/12/25 03:16:05;;;;;;;1.57;0.80;;;9.00;31.60;;;;;;5052220;28;46886;-81
2023/12/25 03:18:30;;;;;;;4.40;0.60;;;9.20;31.60;;;;;;5050132;28;46635;-80
2023/12/25 03:20:55;;;;;;;2.63;0.90;;;9.10;31.20;;;;;;5051275;28;46794;-81
2023/12/25 03:23:21;;;;;;;3.40;0.77;;;9.10;31.10;;;;;;5052223;28;45883;-81
2023/12/25 03:25:47;;;;;;;1.53;0.77;;;9.20;31.00;;;;;;5051491;28;46996;-81
2023/12/25 03:28:12;;;;;;;2.23;0.80;;;9.10;31.20;;;;;;5053848;28;46486;-82
2023/12/25 03:30:38;;;;;;;2.10;0.90;;;9.10;31.30;;;;;;5051276;28;46521;-81
2023/12/25 03:33:03;;;;;;;1.30;0.70;;;9.10;31.10;;;;;;5054732;28;46432;-81
2023/12/25 03:35:30;;;;;;;1.60;0.80;;;9.10;31.10;;;;;;5051605;28;46397;-81
2023/12/25 03:37:55;;;;;;;2.10;1.00;;;9.20;30.90;;;;;;5057285;28;46494;-81
2023/12/25 03:40:21;;;;;;;1.77;0.80;;;9.20;30.60;;;;;;5051558;28;46435;-80
2023/12/25 03:42:46;;;;;;;2.10;0.97;;;9.20;30.70;;;;;;5049690;28;46418;-81
2023/12/25 03:45:12;;;;;;;1.60;0.70;;;9.20;30.60;;;;;;5048381;28;48086;-80
2023/12/25 03:47:37;;;;;;;1.63;0.80;;;9.10;30.60;;;;;;5047598;28;46478;-81
2023/12/25 03:50:03;;;;;;;1.70;0.80;;;9.10;30.70;;;;;;5049887;28;46418;-81
2023/12/25 03:52:29;;;;;;;1.77;0.90;;;9.10;30.80;;;;;;5050061;28;46459;-81
2023/12/25 03:54:54;;;;;;;1.63;0.80;;;9.10;30.70;;;;;;5048821;28;48385;-80
2023/12/25 03:57:20;;;;;;;2.03;0.93;;;9.00;30.40;;;;;;5048628;28;46449;-80
2023/12/25 03:59:45;;;;;;;2.00;0.90;;;9.00;30.10;;;;;;5046710;28;46462;-80
2023/12/25 04:02:11;;;;;;;2.00;0.90;;;9.10;30.20;;;;;;5055058;28;46414;-81
2023/12/25 04:04:39;;;;;;;3.13;0.90;;;9.10;30.30;;;;;;5051384;28;47156;-80
2023/12/25 04:07:05;;;;;;;1.97;1.00;;;9.00;30.20;;;;;;5049715;28;46783;-80
2023/12/25 04:09:30;;;;;;;1.40;0.77;;;9.00;30.30;;;;;;5049018;28;46422;-80
2023/12/25 04:11:56;;;;;;;1.70;0.87;;;8.90;30.30;;;;;;5049179;28;46456;-80
2023/12/25 04:14:22;;;;;;;1.70;0.87;;;8.90;30.40;;;;;;5047808;28;48116;-80
2023/12/25 04:16:47;;;;;;;2.43;0.90;;;8.90;30.40;;;;;;5047355;28;46594;-81
2023/12/25 04:19:13;;;;;;;2.50;0.70;;;8.90;30.30;;;;;;5050498;28;46510;-80
2023/12/25 04:21:38;;;;;;;2.40;0.80;;;8.90;30.30;;;;;;5054138;28;46987;-81
2023/12/25 04:24:04;;;;;;;1.80;1.00;;;8.90;30.40;;;;;;5047023;28;46710;-80
2023/12/25 04:26:30;;;;;;;2.50;0.73;;;8.80;30.50;;;;;;5051391;28;46512;-79
2023/12/25 04:28:55;;;;;;;5.10;0.80;;;8.80;30.50;;;;;;5047915;27;46395;-80
2023/12/25 04:31:21;;;;;;;1.93;1.00;;;8.80;30.50;;;;;;5045888;28;46718;-80
2023/12/25 04:33:46;;;;;;;2.83;0.83;;;8.80;30.50;;;;;;5050943;28;46189;-79
2023/12/25 04:36:12;;;;;;;1.97;1.00;;;8.80;30.30;;;;;;5047168;28;46876;-80
2023/12/25 04:38:38;;;;;;;2.07;0.93;;;8.70;30.30;;;;;;5054778;28;46519;-81
2023/12/25 04:41:04;;;;;;;2.17;0.90;;;8.70;30.30;;;;;;5048063;28;46541;-80
2023/12/25 04:43:29;;;;;;;2.00;0.90;;;8.70;30.50;;;;;;5048076;28;46958;-79
2023/12/25 04:45:55;;;;;;;1.70;0.83;;;8.70;30.10;;;;;;5043760;28;49719;-80
2023/12/25 04:48:20;;;;;;;1.80;0.97;;;8.70;30.20;;;;;;5042490;28;47368;-78
2023/12/25 04:50:49;;;;;;;3.43;1.10;;;8.70;30.10;;;;;;5048810;28;46924;-81
2023/12/25 04:53:14;;;;;;;2.50;0.80;;;8.80;30.10;;;;;;5049581;28;47020;-80
2023/12/25 04:55:40;;;;;;;1.60;0.80;;;8.80;30.00;;;;;;5051124;28;47101;-80
2023/12/25 04:58:06;;;;;;;1.57;0.93;;;8.80;29.90;;;;;;5045212;28;46865;-79
2023/12/25 05:00:33;;;;;;;2.07;0.80;;;8.80;29.80;;;;;;5044784;28;46613;-80
2023/12/25 05:02:59;;;;;;;3.67;1.00;;;8.90;29.70;;;;;;5046477;28;46439;-78
2023/12/25 05:05:25;;;;;;;2.20;0.80;;;8.80;29.70;;;;;;5049160;28;46734;-79
2023/12/25 05:07:51;;;;;;;2.33;1.03;;;8.80;29.80;;;;;;5053001;28;46608;-81
2023/12/25 05:10:17;;;;;;;1.60;0.90;;;8.80;29.80;;;;;;5049673;28;46561;-80
2023/12/25 05:12:42;;;;;;;1.50;0.70;;;8.80;29.70;;;;;;5052321;28;46978;-81
2023/12/25 05:15:08;;;;;;;1.93;0.90;;;8.80;29.50;;;;;;5051632;28;46703;-80
2023/12/25 05:17:34;;;;;;;2.13;0.90;;;8.80;29.60;;;;;;5054094;28;46431;-81
2023/12/25 05:20:01;;;;;;;1.80;0.80;;;8.80;29.60;;;;;;5052783;28;46609;-80
2023/12/25 05:22:26;;;;;;;2.10;0.70;;;8.80;29.60;;;;;;5050548;28;47121;-80
2023/12/25 05:24:52;;;;;;;1.80;0.87;;;8.80;29.50;;;;;;5053545;28;46433;-81
2023/12/25 05:27:17;;;;;;;1.30;0.70;;;8.80;29.60;;;;;;5054508;28;46412;-80
2023/12/25 05:29:43;;;;;;;2.30;1.10;;;8.80;29.50;;;;;;5051454;28;47000;-82
2023/12/25 05:32:35;;;;;;;2.80;0.97;;;8.80;29.60;;;;;;5056815;28;46548;-80
2023/12/25 05:35:01;;;;;;;2.20;0.80;;;8.80;29.50;;;;;;5049968;28;46502;-81
2023/12/25 05:37:26;;;;;;;1.33;0.73;;;8.80;29.60;;;;;;5050184;28;46507;-78
2023/12/25 05:39:52;;;;;;;1.57;0.80;;;8.80;29.50;;;;;;5055907;28;46700;-81
2023/12/25 05:42:18;;;;;;;1.93;0.90;;;8.80;29.60;;;;;;5054845;28;47724;-81
2023/12/25 05:44:43;;;;;;;3.10;1.00;;;8.80;29.50;;;;;;5052567;28;46425;-81
2023/12/25 05:47:09;;;;;;;2.40;0.87;;;8.80;29.20;;;;;;5057886;28;46372;-79
2023/12/25 05:49:34;;;;;;;1.50;0.80;;;8.80;29.20;;;;;;5049776;28;46437;-79
2023/12/25 05:52:00;;;;;;;3.30;0.83;;;8.80;29.30;;;;;;5047485;28;47055;-81
2023/12/25 05:54:25;;;;;;;5.53;0.90;;;8.80;29.30;;;;;;5050589;28;46850;-81
2023/12/25 05:56:51;;;;;;;1.60;0.80;;;8.90;29.50;;;;;;5054553;28;46501;-79
2023/12/25 05:59:16;;;;;;;2.47;1.20;;;8.70;29.30;;;;;;5050278;28;46714;-80
2023/12/25 06:01:43;;;;;;;1.77;0.77;;;8.70;29.50;;;;;;5055316;28;47546;-80
2023/12/25 06:04:08;;;;;;;1.70;0.80;;;8.70;29.60;;;;;;5050882;28;46442;-80
2023/12/25 06:06:34;;;;;;;1.30;0.70;;;8.70;29.60;;;;;;5053053;28;46505;-81
2023/12/25 06:09:00;;;;;;;2.23;1.20;;;8.70;29.60;;;;;;5053179;28;46537;-80
2023/12/25 06:11:25;;;;;;;1.60;0.97;;;8.80;29.60;;;;;;5051213;28;47188;-80
2023/12/25 06:13:51;;;;;;;1.90;1.10;;;8.70;29.50;;;;;;5046950;28;46529;-80
2023/12/25 06:16:16;;;;;;;3.67;1.23;;;8.70;29.40;;;;;;5055623;28;46999;-80
2023/12/25 06:18:42;;;;;;;3.57;1.23;;;8.80;29.10;;;;;;5051990;28;46196;-80
2023/12/25 06:21:08;;;;;;;1.93;0.80;;;8.90;29.00;;;;;;5052017;28;48552;-79
2023/12/25 06:23:34;;;;;;;4.60;1.70;;;8.80;28.80;;;;;;5056017;28;46976;-79
2023/12/25 06:26:00;;;;;;;2.47;1.20;;;8.80;28.60;;;;;;5051624;28;46832;-79
2023/12/25 06:28:26;;;;;;;2.70;1.10;;;8.80;28.30;;;;;;5050373;28;46741;-79
2023/12/25 06:30:52;;;;;;;3.43;1.20;;;8.80;28.40;;;;;;5049627;28;46908;-80
2023/12/25 06:33:19;;;;;;;2.40;1.23;;;8.90;28.10;;;;;;5047987;28;46450;-80
2023/12/25 06:35:44;;;;;;;2.80;1.47;;;8.80;28.10;;;;;;5051108;28;46654;-80
2023/12/25 06:38:12;;;;;;;2.73;1.37;;;8.80;28.00;;;;;;5051685;28;46965;-80
2023/12/25 06:40:38;;;;;;;1.77;0.90;;;8.70;27.80;;;;;;5049062;28;46848;-80
2023/12/25 06:43:03;;;;;;;2.23;1.00;;;8.60;27.70;;;;;;5057493;28;46251;-81
2023/12/25 06:45:29;;;;;;;2.47;1.13;;;8.60;27.50;;;;;;5055395;28;46382;-81
2023/12/25 06:47:55;;;;;;;4.00;0.93;;;8.60;27.40;;;;;;5050539;28;46498;-80
2023/12/25 06:50:20;;;;;;;3.90;1.17;;;8.60;27.20;;;;;;5053872;28;46510;-81
2023/12/25 06:52:46;;;;;;;1.87;1.03;;;8.60;26.90;;;;;;5055412;28;46415;-80
2023/12/25 06:55:12;;;;;;;1.37;0.73;;;8.70;26.80;;;;;;5051322;28;46884;-80
2023/12/25 06:57:38;;;;;;;1.83;0.90;;;8.60;26.40;;;;;;5052151;28;46935;-79
2023/12/25 07:00:05;;;;;;;1.97;0.87;;;8.80;26.30;;;;;;5053934;28;47544;-82
2023/12/25 07:02:31;;;;;;;1.33;0.73;;;8.60;25.90;;;;;;5049272;28;46446;-82
2023/12/25 07:04:56;;;;;;;1.70;0.90;;;8.60;26.00;;;;;;5055020;28;46573;-80
2023/12/25 07:07:22;;;;;;;2.63;0.90;;;8.60;25.90;;;;;;5051795;28;46779;-81
2023/12/25 07:09:48;;;;;;;1.43;0.77;;;8.70;26.00;;;;;;5050857;28;46476;-78
2023/12/25 07:12:14;;;;;;;2.07;0.80;;;8.70;26.00;;;;;;5051731;28;46958;-81
2023/12/25 07:14:43;;;;;;;4.23;0.80;;;8.70;25.40;;;;;;5055011;28;46680;-78
2023/12/25 07:17:09;;;;;;;1.93;0.90;;;8.90;25.20;;;;;;5051333;28;46344;-79
2023/12/25 07:19:34;;;;;;;1.20;0.70;;;8.80;25.00;;;;;;5049701;28;46380;-82
2023/12/25 07:22:01;;;;;;;1.37;0.83;;;8.80;24.80;;;;;;5048807;28;46686;-80
2023/12/25 07:24:27;;;;;;;1.97;0.90;;;8.80;24.30;;;;;;5058077;28;46507;-80
2023/12/25 07:26:56;;;;;;;2.10;0.90;;;8.80;24.20;;;;;;5049781;28;47608;-80
2023/12/25 07:29:22;;;;;;;1.80;0.80;;;8.90;24.10;;;;;;5050450;28;47088;-81
2023/12/25 07:31:47;;;;;;;1.90;0.80;;;9.00;23.80;;;;;;5049437;28;46883;-80
2023/12/25 07:34:13;;;;;;;3.97;1.00;;;9.00;23.70;;;;;;5056151;28;46693;-81
2023/12/25 07:36:39;;;;;;;1.77;0.80;;;9.00;23.20;;;;;;5051102;28;46951;-80
2023/12/25 07:39:05;;;;;;;5.13;0.97;;;9.10;23.30;;;;;;5056890;28;47063;-82
2023/12/25 07:41:31;;;;;;;2.27;1.00;;;9.00;22.90;;;;;;5055664;28;46460;-79
2023/12/25 07:44:00;;;;;;;2.27;0.83;;;9.10;22.80;;;;;;5056959;28;45906;-78
2023/12/25 07:46:26;;;;;;;4.50;1.20;;;9.10;22.60;;;;;;5048585;28;46505;-80
2023/12/25 07:48:52;;;;;;;2.70;1.13;;;9.20;22.50;;;;;;5050373;28;46818;-79
2023/12/25 07:51:18;;;;;;;2.00;1.00;;;9.20;22.10;;;;;;5051563;28;46496;-80
2023/12/25 07:53:44;;;;;;;1.70;0.73;;;9.20;21.80;;;;;;5049469;28;46396;-79
2023/12/25 07:56:09;;;;;;;1.50;0.80;;;9.20;20.90;;;;;;5050595;28;46978;-81
2023/12/25 07:58:38;;;;;;;2.57;1.07;;;9.20;20.90;;;;;;5048246;28;46502;-81
2023/12/25 08:01:03;;;;;;;1.40;0.77;;;9.20;20.00;;;;;;5047324;28;46637;-79
2023/12/25 08:03:29;;;;;;;2.73;0.83;;;9.20;20.10;;;;;;5046816;28;46770;-79
2023/12/25 08:05:55;;;;;;;1.90;1.00;;;9.20;20.20;;;;;;5052856;28;45927;-79
2023/12/25 08:08:21;;;;;;;1.60;0.90;;;9.30;19.50;;;;;;5050349;28;48925;-79
2023/12/25 08:10:46;;;;;;;2.00;1.07;;;9.30;19.40;;;;;;5051459;28;45850;-80
2023/12/25 08:13:16;;;;;;;1.50;0.80;;;9.30;19.50;;;;;;5050435;28;46545;-79
2023/12/25 08:15:41;;;;;;;1.60;0.90;;;9.30;19.10;;;;;;5054470;28;46919;-79
2023/12/25 08:18:07;;;;;;;1.53;0.73;;;9.50;19.10;;;;;;5051192;28;48073;-79
2023/12/25 08:20:33;;;;;;;2.27;1.00;;;9.60;18.90;;;;;;5049955;28;46498;-79
2023/12/25 08:22:58;;;;;;;1.70;0.90;;;9.60;18.70;;;;;;5054876;28;46469;-80
2023/12/25 08:25:24;;;;;;;2.10;0.93;;;9.60;18.10;;;;;;5053763;28;46161;-78
2023/12/25 08:27:49;;;;;;;1.50;0.77;;;9.60;17.30;;;;;;5044999;28;46452;-79
2023/12/25 08:30:15;;;;;;;1.50;0.70;;;9.60;17.70;;;;;;5046061;28;46980;-81
2023/12/25 08:32:41;;;;;;;1.40;0.80;;;9.60;17.60;;;;;;5047520;28;46598;-80
2023/12/25 08:35:06;;;;;;;1.87;0.87;;;9.60;17.50;;;;;;5047753;28;46369;-81
2023/12/25 08:37:32;;;;;;;1.60;0.80;;;9.60;17.50;;;;;;5047874;28;48374;-80
2023/12/25 08:39:58;;;;;;;1.70;1.00;;;9.60;17.60;;;;;;5052972;28;46779;-79
2023/12/25 08:42:23;;;;;;;3.43;0.80;;;9.60;17.00;;;;;;5059837;28;46431;-79
2023/12/25 08:44:49;;;;;;;1.83;0.90;;;9.60;16.50;;;;;;5051345;28;46263;-78
2023/12/25 08:47:15;;;;;;;3.70;1.00;;;9.60;15.80;;;;;;5052879;28;47238;-78
2023/12/25 08:49:40;;;;;;;2.23;0.87;;;9.60;15.80;;;;;;5049385;28;46325;-79
2023/12/25 08:52:06;;;;;;;1.60;0.70;;;9.70;16.10;;;;;;5052357;28;46691;-78
2023/12/25 08:54:32;;;;;;;1.60;0.73;;;9.60;15.80;;;;;;5053435;28;46402;-78
2023/12/25 08:56:59;;;;;;;1.77;0.70;;;9.60;16.00;;;;;;5051113;28;47115;-79
2023/12/25 08:59:25;;;;;;;1.60;0.80;;;9.70;16.40;;;;;;5049195;28;46445;-79
2023/12/25 09:01:51;;;;;;;1.80;0.80;;;9.70;15.90;;;;;;5051248;28;46905;-79
2023/12/25 09:04:16;;;;;;;1.73;0.90;;;9.80;15.90;;;;;;5050802;28;46486;-78
2023/12/25 09:06:42;;;;;;;3.30;0.80;;;9.90;16.00;;;;;;5053772;28;48070;-79
2023/12/25 09:09:09;;;;;;;1.33;0.63;;;10.10;15.40;;;;;;5053581;28;46944;-79
2023/12/25 09:11:35;;;;;;;1.90;0.70;;;10.00;14.50;;;;;;5057118;28;46420;-79
2023/12/25 09:14:01;;;;;;;1.93;0.80;;;10.10;14.60;;;;;;5055420;28;45993;-79
2023/12/25 09:16:28;;;;;;;1.70;0.80;;;10.10;14.00;;;;;;5043914;28;47172;-78
2023/12/25 09:18:54;;;;;;;2.00;0.90;;;10.20;13.80;;;;;;5047353;28;46494;-83
2023/12/25 09:21:20;;;;;;;1.50;0.70;;;10.30;13.60;;;;;;5048974;28;46543;-80
2023/12/25 09:23:46;;;;;;;1.70;0.83;;;10.40;13.10;;;;;;5050698;28;46510;-81
2023/12/25 09:26:19;;;;;;;1.67;0.83;;;10.60;13.00;;;;;;5051577;28;46965;-80
2023/12/25 09:28:45;;;;;;;1.97;0.70;;;10.80;12.20;;;;;;5052122;28;46841;-80
2023/12/25 09:31:12;;;;;;;1.87;0.90;;;10.90;13.00;;;;;;6039511;22;47062;-77
2023/12/25 09:33:37;;;;;;;1.73;0.87;;;11.20;10.70;;;;;;5067877;27;46465;-81
2023/12/25 09:36:04;;;;;;;1.93;0.90;;;11.20;10.30;;;;;;5073446;28;47518;-80
2023/12/25 09:38:30;;;;;;;1.87;0.77;;;11.30;10.20;;;;;;5097585;27;46898;-79
2023/12/25 09:40:56;;;;;;;1.60;0.80;;;11.40;10.00;;;;;;5080076;28;46396;-81
2023/12/25 09:43:22;;;;;;;1.90;1.00;;;11.50;9.80;;;;;;5057930;28;46528;-80
2023/12/25 09:45:49;;;;;;;1.83;0.80;;;11.60;9.50;;;;;;5059649;28;46878;-79
2023/12/25 09:48:16;;;;;;;2.63;1.23;;;11.60;9.40;;;;;;5058975;28;46641;-79
2023/12/25 09:50:43;;;;;;;2.17;0.90;;;11.50;8.60;;;;;;5057361;28;46381;-79
2023/12/25 09:53:08;;;;;;;2.07;0.80;;;11.50;8.80;;;;;;5055303;28;46459;-80
2023/12/25 09:55:34;;;;;;;1.83;0.87;;;11.30;8.10;;;;;;5055740;28;48285;-78
2023/12/25 09:58:04;;;;;;;1.93;0.90;;;11.30;8.80;;;;;;5057677;28;46748;-79
2023/12/25 10:00:30;;;;;;;2.47;1.10;;;11.10;8.00;;;;;;5053202;28;45912;-79
2023/12/25 10:02:57;;;;;;;1.80;0.90;;;11.00;8.10;;;;;;5053431;28;46651;-79
2023/12/25 10:05:22;;;;;;;1.63;0.80;;;10.90;8.70;;;;;;5053509;28;46503;-79
2023/12/25 10:07:48;;;;;;;14.07;6.50;;;10.80;8.40;;;;;;5058974;28;46642;-80
2023/12/25 10:10:14;;;;;;;24.23;9.60;;;10.80;8.30;;;;;;5054426;28;46813;-79
2023/12/25 10:12:45;;;;;;;7.50;3.60;;;10.80;8.70;;;;;;5059689;28;46480;-80
2023/12/25 10:15:14;;;;;;;2.23;1.10;;;10.80;8.70;;;;;;5057437;28;46614;-78
2023/12/25 10:17:40;;;;;;;2.00;1.10;;;10.90;8.80;;;;;;5055612;28;46972;-79
2023/12/25 10:20:15;;;;;;;2.13;1.10;;;11.00;8.40;;;;;;5056710;28;46504;-78
2023/12/25 10:22:40;;;;;;;1.70;0.80;;;11.10;7.60;;;;;;5050791;28;46556;-80
2023/12/25 10:25:10;;;;;;;3.17;1.10;;;11.10;7.60;;;;;;5056243;28;46966;-77
2023/12/25 10:27:39;;;;;;;2.23;1.10;;;11.20;5.50;;;;;;5056417;28;46830;-80
2023/12/25 10:30:15;;;;;;;2.63;1.00;;;11.40;5.50;;;;;;5055608;28;45881;-80
2023/12/25 10:32:40;;;;;;;1.90;0.90;;;11.60;5.30;;;;;;5054495;28;46449;-79
2023/12/25 10:35:11;;;;;;;3.30;0.97;;;11.80;5.50;;;;;;5055339;28;46402;-78
2023/12/25 10:37:38;;;;;;;1.80;0.90;;;11.90;4.70;;;;;;5057194;27;46768;-80
2023/12/25 10:40:27;;;;;;;1.90;0.90;;;11.90;5.00;;;;;;5054336;28;46759;-80
2023/12/25 10:42:54;;;;;;;2.67;0.80;;;11.90;5.00;;;;;;5056351;28;46439;-78
2023/12/25 10:45:30;;;;;;;1.60;0.80;;;11.80;5.60;;;;;;5053831;28;48030;-77
2023/12/25 10:47:57;;;;;;;1.87;1.10;;;11.60;5.30;;;;;;5055792;28;46655;-77
2023/12/25 10:50:27;;;;;;;1.83;0.93;;;11.60;5.40;;;;;;5056797;28;46714;-79
2023/12/25 10:52:57;;;;;;;1.87;0.80;;;11.60;5.30;;;;;;5057061;28;46689;-79
2023/12/25 10:55:40;;;;;;;2.00;0.90;;;11.60;5.30;;;;;;5055137;28;46437;-79
2023/12/25 10:58:08;;;;;;;1.80;0.90;;;11.60;5.30;;;;;;5053688;28;46928;-77
2023/12/25 11:03:56;;;;;;;2.33;1.00;;;11.50;4.60;;;;;;5067527;27;46387;-79
2023/12/25 11:06:22;;;;;;;3.20;0.90;;;11.40;4.30;;;;;;5078115;27;47226;-79
2023/12/25 11:08:48;;;;;;;2.23;0.90;;;11.30;3.10;;;;;;5076344;27;46505;-79
2023/12/25 11:11:14;;;;;;;1.83;0.90;;;11.30;3.60;;;;;;5076668;27;46523;-80
2023/12/25 11:13:41;;;;;;;2.37;1.30;;;11.30;3.60;;;;;;5080238;27;46668;-80
2023/12/25 11:16:07;;;;;;;1.53;0.80;;;11.30;3.60;;;;;;5055120;27;48914;-81
2023/12/25 11:18:37;;;;;;;2.33;1.00;;;11.30;1.90;;;;;;5079114;27;45853;-79
2023/12/25 11:21:19;;;;;;;1.70;0.90;;;11.40;2.40;;;;;;5059363;27;46719;-79
2023/12/25 11:23:46;;;;;;;1.93;1.00;;;11.50;2.60;;;;;;5080870;27;46846;-79
2023/12/25 11:26:16;;;;;;;2.20;0.90;;;11.50;2.70;;;;;;5077459;27;46182;-79
2023/12/25 11:28:43;;;;;;;2.80;1.00;;;11.50;2.50;;;;;;5080303;28;46582;-78
2023/12/25 11:31:13;;;;;;;1.67;0.83;;;11.50;2.60;;;;;;5078046;28;46406;-79
2023/12/25 11:33:46;;;;;;;1.70;0.80;;;11.60;2.80;;;;;;5061795;28;46546;-80
2023/12/25 11:36:17;;;;;;;2.50;1.00;;;11.60;2.20;;;;;;5057038;28;49398;-79
2023/12/25 11:38:56;;;;;;;1.87;0.90;;;11.70;1.70;;;;;;5081376;28;46583;-78
2023/12/25 11:41:23;;;;;;;4.77;1.00;;;11.70;2.20;;;;;;5081043;28;46721;-79
2023/12/25 11:43:49;;;;;;;4.03;0.80;;;11.70;1.50;;;;;;5079317;28;45841;-80
2023/12/25 11:46:19;;;;;;;1.90;0.90;;;11.80;3.00;;;;;;5071887;28;46412;-79
2023/12/25 11:48:47;;;;;;;2.33;0.90;;;11.70;1.60;;;;;;5073305;28;46521;-78
2023/12/25 11:51:22;;;;;;;4.57;1.27;;;11.80;2.00;;;;;;5052220;28;46439;-78
2023/12/25 11:53:50;;;;;;;3.10;1.23;;;11.90;2.00;;;;;;5071416;28;46414;-78
2023/12/25 11:56:17;;;;;;;2.50;1.10;;;12.00;2.30;;;;;;5070410;28;46451;-79
2023/12/25 11:58:43;;;;;;;2.20;1.20;;;12.00;2.50;;;;;;5076648;28;47505;-79
2023/12/25 12:01:14;;;;;;;3.17;1.47;;;11.90;2.80;;;;;;5058961;28;46589;-80
2023/12/25 12:03:48;;;;;;;2.40;1.47;;;11.80;2.80;;;;;;5073205;28;47207;-83
2023/12/25 12:06:15;;;;;;;3.70;1.60;;;11.80;2.90;;;;;;5071397;28;47221;-77
2023/12/25 12:08:42;;;;;;;2.73;1.63;;;11.60;3.10;;;;;;5076132;28;46561;-78
2023/12/25 12:11:13;;;;;;;1.70;0.90;;;11.60;3.30;;;;;;5056272;28;46576;-79
2023/12/25 12:13:39;;;;;;;2.13;0.97;;;11.60;3.40;;;;;;5076624;27;46386;-79
2023/12/25 12:16:05;;;;;;;3.23;1.27;;;11.60;3.70;;;;;;5078654;28;47502;-80
2023/12/25 12:18:31;;;;;;;2.57;0.90;;;11.50;3.40;;;;;;5077630;27;46447;-79
2023/12/25 12:20:58;;;;;;;2.00;0.80;;;11.60;3.20;;;;;;5061770;28;46728;-78
2023/12/25 12:23:24;;;;;;;2.00;0.80;;;11.70;3.10;;;;;;5080545;28;46913;-77
2023/12/25 12:25:50;;;;;;;2.03;1.00;;;11.80;3.00;;;;;;5081153;28;46457;-78
2023/12/25 12:28:16;;;;;;;1.87;0.80;;;12.00;2.40;;;;;;5079791;27;46505;-78
2023/12/25 12:30:42;;;;;;;2.03;0.90;;;12.10;2.80;;;;;;5080290;27;46470;-79
2023/12/25 12:33:09;;;;;;;2.83;1.30;;;12.20;2.70;;;;;;5079510;27;46740;-78
2023/12/25 12:35:34;;;;;;;3.50;1.00;;;12.30;2.70;;;;;;5079752;27;46406;-78
2023/12/25 12:38:01;;;;;;;2.23;0.90;;;12.40;2.70;;;;;;5078043;27;47075;-79
2023/12/25 12:40:27;;;;;;;2.40;0.90;;;12.50;2.80;;;;;;5061933;28;46568;-78
2023/12/25 12:42:53;;;;;;;2.03;0.90;;;12.50;2.50;;;;;;5059991;28;46470;-79
2023/12/25 12:45:19;;;;;;;2.50;1.20;;;12.40;2.20;;;;;;5077876;27;47491;-79
2023/12/25 12:47:45;;;;;;;1.70;0.70;;;12.50;2.30;;;;;;5078835;27;46505;-79
2023/12/25 12:50:11;;;;;;;5.70;1.00;;;12.50;1.90;;;;;;5078546;28;46536;-79
2023/12/25 12:52:37;;;;;;;2.50;1.20;;;12.70;2.00;;;;;;5079212;27;46379;-79
2023/12/25 12:55:03;;;;;;;2.10;0.80;;;12.70;2.00;;;;;;5078258;28;46630;-80